Time;durP1;ratioP1;P1;durP2;ratioP2;P2;SDS_P1;SDS_P2;PMS_P1;PMS_P2;Temp;Humidity;BMP_temperature;BMP_pressure;BME280_temperature;BME280_humidity;BME280_pressure;Samples;Min_cycle;Max_cycle;Signal;HPM_P1;HPM_P2
2021/03/24 00:01:27;;;;;;;0.60;0.60;;;5.00;99.90;;;;;;6086735;23;20632;-84
2021/03/24 00:03:54;;;;;;;0.55;0.55;;;5.00;99.90;;;;;;6086298;23;20262;-85
2021/03/24 00:06:20;;;;;;;0.50;0.50;;;5.00;99.90;;;;;;6086791;23;20190;-85
2021/03/24 00:08:47;;;;;;;0.60;0.60;;;5.10;99.90;;;;;;6087412;23;20183;-84
2021/03/24 00:11:15;;;;;;;0.60;0.60;;;5.00;99.90;;;;;;6087461;23;20179;-84
2021/03/24 00:13:41;;;;;;;0.60;0.60;;;5.00;99.90;;;;;;6086436;23;20236;-85
2021/03/24 00:16:09;;;;;;;0.50;0.50;;;5.00;99.90;;;;;;6086436;23;20182;-85
2021/03/24 00:18:35;;;;;;;0.60;0.60;;;5.00;99.90;;;;;;6086684;23;20510;-85
2021/03/24 00:21:03;;;;;;;0.60;0.60;;;5.00;99.90;;;;;;6087126;23;20199;-85
2021/03/24 00:23:29;;;;;;;0.50;0.50;;;4.90;99.90;;;;;;6087060;23;20186;-85
2021/03/24 00:25:56;;;;;;;0.50;0.50;;;4.90;99.90;;;;;;6086501;23;20179;-85
2021/03/24 00:28:22;;;;;;;0.60;0.60;;;6.80;99.90;;;;;;6086117;23;20479;-85
2021/03/24 00:30:51;;;;;;;0.60;0.60;;;4.90;99.90;;;;;;6086607;23;20265;-86
2021/03/24 00:33:20;;;;;;;0.60;0.60;;;4.90;99.90;;;;;;6087132;23;20178;-85
2021/03/24 00:35:46;;;;;;;0.60;0.60;;;5.00;99.90;;;;;;6086657;23;20179;-85
2021/03/24 00:38:15;;;;;;;0.52;0.52;;;5.00;99.90;;;;;;6086584;23;20623;-84
2021/03/24 00:40:43;;;;;;;0.60;0.60;;;4.70;99.90;;;;;;6086314;23;20221;-85
2021/03/24 00:43:11;;;;;;;0.60;0.60;;;4.80;99.90;;;;;;6086301;23;20184;-85
2021/03/24 00:45:39;;;;;;;0.60;0.60;;;5.00;99.90;;;;;;6086110;23;20690;-85
2021/03/24 00:48:07;;;;;;;0.52;0.52;;;5.00;99.90;;;;;;6086162;23;20229;-84
2021/03/24 00:50:35;;;;;;;0.60;0.60;;;5.10;99.90;;;;;;6086554;23;20202;-85
2021/03/24 00:53:02;;;;;;;0.60;0.60;;;6.10;99.90;;;;;;6086867;23;20188;-85
2021/03/24 00:55:29;;;;;;;0.60;0.60;;;6.40;99.90;;;;;;6086466;23;20203;-85
2021/03/24 00:57:55;;;;;;;0.60;0.60;;;5.00;99.90;;;;;;6085745;23;20175;-85
2021/03/24 01:00:24;;;;;;;0.60;0.60;;;5.20;99.90;;;;;;6085720;23;20688;-85
2021/03/24 01:02:50;;;;;;;0.60;0.60;;;5.10;99.90;;;;;;6085809;23;20179;-85
2021/03/24 01:05:24;;;;;;;0.60;0.60;;;5.10;99.90;;;;;;6097453;23;20202;-87
2021/03/24 01:07:54;;;;;;;0.60;0.60;;;6.20;99.90;;;;;;6103895;23;20167;-85
2021/03/24 01:10:25;;;;;;;0.60;0.60;;;4.80;99.90;;;;;;6086238;23;20210;-85
2021/03/24 01:12:56;;;;;;;0.55;0.55;;;5.00;99.90;;;;;;6086433;23;20167;-84
2021/03/24 01:15:23;;;;;;;0.55;0.55;;;5.20;99.90;;;;;;6086051;23;20170;-85
2021/03/24 01:17:50;;;;;;;0.50;0.50;;;5.00;99.90;;;;;;6085788;23;20187;-85
2021/03/24 01:20:17;;;;;;;0.60;0.60;;;5.00;99.90;;;;;;6086396;23;20689;-85
2021/03/24 01:22:43;;;;;;;0.57;0.57;;;4.90;99.90;;;;;;6086665;23;20640;-85
2021/03/24 01:25:10;;;;;;;0.60;0.60;;;4.70;99.90;;;;;;6086811;23;20179;-85
2021/03/24 01:27:37;;;;;;;0.60;0.60;;;5.00;99.90;;;;;;6087174;23;20179;-86
2021/03/24 01:30:07;;;;;;;0.50;0.50;;;5.00;99.90;;;;;;6087730;23;20513;-85
2021/03/24 01:32:33;;;;;;;0.50;0.50;;;5.20;99.90;;;;;;6087498;23;20179;-85
2021/03/24 01:35:00;;;;;;;0.50;0.50;;;5.00;99.90;;;;;;6087879;23;20233;-85
2021/03/24 01:37:26;;;;;;;0.60;0.60;;;5.00;99.90;;;;;;6087376;23;20180;-85
2021/03/24 01:39:52;;;;;;;0.50;0.50;;;5.00;99.90;;;;;;6087214;23;20257;-85
2021/03/24 01:42:18;;;;;;;0.60;0.60;;;5.00;99.90;;;;;;6087456;23;20234;-85
2021/03/24 01:45:04;;;;;;;0.60;0.60;;;5.00;99.90;;;;;;6087822;23;20190;-85
2021/03/24 01:47:32;;;;;;;0.50;0.50;;;5.00;99.90;;;;;;6087600;23;20175;-85
2021/03/24 01:49:58;;;;;;;0.60;0.60;;;4.90;99.90;;;;;;6087703;23;20179;-85
2021/03/24 01:52:25;;;;;;;0.50;0.50;;;5.00;99.90;;;;;;6087238;23;20273;-85
2021/03/24 01:54:52;;;;;;;0.50;0.50;;;5.00;99.90;;;;;;6087129;23;20210;-85
2021/03/24 01:57:22;;;;;;;0.60;0.60;;;5.00;99.90;;;;;;6087431;23;20474;-85
2021/03/24 01:59:51;;;;;;;0.60;0.60;;;5.00;99.90;;;;;;6087268;23;20183;-85
2021/03/24 02:02:18;;;;;;;0.60;0.60;;;5.10;99.90;;;;;;6087482;23;20183;-85
2021/03/24 02:04:47;;;;;;;0.60;0.60;;;5.10;99.90;;;;;;6087850;23;20179;-86
2021/03/24 02:07:18;;;;;;;0.60;0.60;;;6.10;99.90;;;;;;6088016;23;20187;-86
2021/03/24 02:09:49;;;;;;;0.60;0.60;;;5.00;99.90;;;;;;6087499;23;20663;-85
2021/03/24 02:12:20;;;;;;;0.60;0.60;;;5.00;99.90;;;;;;6087833;23;20168;-85
2021/03/24 02:14:52;;;;;;;0.60;0.60;;;5.10;99.90;;;;;;6087917;23;20163;-85
2021/03/24 02:17:21;;;;;;;0.50;0.50;;;6.20;99.90;;;;;;6087572;23;20163;-85
2021/03/24 02:19:56;;;;;;;0.55;0.55;;;5.10;99.90;;;;;;6087349;23;20229;-85
2021/03/24 02:22:27;;;;;;;0.60;0.60;;;5.20;99.90;;;;;;6087409;23;20167;-85
2021/03/24 02:24:59;;;;;;;0.60;0.60;;;5.10;99.90;;;;;;6086953;23;20608;-85
2021/03/24 02:27:32;;;;;;;0.57;0.57;;;5.10;99.90;;;;;;6087107;23;20543;-86
2021/03/24 02:30:05;;;;;;;0.60;0.60;;;5.00;99.90;;;;;;6088110;23;20187;-85
2021/03/24 02:32:35;;;;;;;0.50;0.50;;;5.00;99.90;;;;;;6087775;23;20226;-85
2021/03/24 02:35:05;;;;;;;0.60;0.60;;;5.30;99.90;;;;;;6087644;23;20186;-85
2021/03/24 02:37:34;;;;;;;0.60;0.60;;;5.10;99.90;;;;;;6087603;23;20183;-84
2021/03/24 02:40:03;;;;;;;0.50;0.50;;;5.10;99.90;;;;;;6087609;23;20207;-85
2021/03/24 02:42:30;;;;;;;0.60;0.60;;;5.20;99.90;;;;;;6087008;23;20179;-85
2021/03/24 02:44:56;;;;;;;0.60;0.60;;;6.80;99.90;;;;;;6087466;23;20179;-85
2021/03/24 02:47:23;;;;;;;0.60;0.60;;;4.90;99.90;;;;;;6086901;23;20191;-85
2021/03/24 02:49:50;;;;;;;0.50;0.50;;;5.00;99.90;;;;;;6087051;23;20179;-85
2021/03/24 02:52:17;;;;;;;0.60;0.60;;;5.10;99.90;;;;;;6087074;23;20206;-85
2021/03/24 02:54:45;;;;;;;0.60;0.60;;;5.10;99.90;;;;;;6087471;23;20179;-85
2021/03/24 02:57:12;;;;;;;0.60;0.60;;;5.00;99.90;;;;;;6087327;23;20548;-85
2021/03/24 02:59:41;;;;;;;0.60;0.60;;;5.00;99.90;;;;;;6102043;23;20245;-87
2021/03/24 03:02:13;;;;;;;0.60;0.60;;;5.50;99.90;;;;;;6093149;23;20393;-85
2021/03/24 03:04:43;;;;;;;0.60;0.60;;;5.00;99.90;;;;;;6087358;23;20251;-87
2021/03/24 03:07:15;;;;;;;0.50;0.50;;;6.60;99.90;;;;;;6087111;23;20172;-85
2021/03/24 03:09:49;;;;;;;0.60;0.60;;;4.90;99.90;;;;;;6087679;23;20490;-86
2021/03/24 03:12:23;;;;;;;0.60;0.60;;;5.00;99.90;;;;;;6087880;23;20222;-86
2021/03/24 03:14:54;;;;;;;0.60;0.60;;;4.80;99.90;;;;;;6087187;23;20225;-85
2021/03/24 03:17:24;;;;;;;0.60;0.60;;;5.00;99.90;;;;;;6087638;23;20195;-85
2021/03/24 03:19:56;;;;;;;0.50;0.50;;;5.20;99.90;;;;;;6087152;23;20205;-86
2021/03/24 03:22:25;;;;;;;0.55;0.55;;;5.00;99.90;;;;;;6086810;23;20519;-84
2021/03/24 03:24:56;;;;;;;0.60;0.60;;;5.00;99.90;;;;;;6086916;23;20585;-85
2021/03/24 03:27:25;;;;;;;0.60;0.60;;;5.00;99.90;;;;;;6086779;23;20163;-84
2021/03/24 03:29:55;;;;;;;0.55;0.55;;;5.00;99.90;;;;;;6086970;23;20217;-84
2021/03/24 03:32:24;;;;;;;0.50;0.50;;;5.10;99.90;;;;;;6086624;23;20247;-87
2021/03/24 03:34:54;;;;;;;0.60;0.60;;;5.10;99.90;;;;;;6087212;23;20231;-86
2021/03/24 03:37:21;;;;;;;0.60;0.60;;;5.10;99.90;;;;;;6087365;23;20179;-87
2021/03/24 03:39:50;;;;;;;0.60;0.60;;;7.00;99.90;;;;;;6087469;23;20195;-87
2021/03/24 03:42:17;;;;;;;0.57;0.57;;;5.00;99.90;;;;;;6088043;23;20186;-86
2021/03/24 03:44:45;;;;;;;0.60;0.60;;;5.70;99.90;;;;;;6087449;23;20550;-87
2021/03/24 03:47:14;;;;;;;0.60;0.60;;;4.60;99.90;;;;;;6086653;23;20184;-86
2021/03/24 03:49:41;;;;;;;0.60;0.60;;;5.90;99.90;;;;;;6087013;23;20207;-86
2021/03/24 03:52:16;;;;;;;0.60;0.60;;;5.00;99.90;;;;;;6086591;23;20195;-85
2021/03/24 03:54:48;;;;;;;0.57;0.57;;;5.00;99.90;;;;;;6087331;23;20484;-85
2021/03/24 03:57:21;;;;;;;0.60;0.60;;;4.80;99.90;;;;;;6087258;23;20164;-85
2021/03/24 03:59:54;;;;;;;0.57;0.57;;;5.00;99.90;;;;;;6086867;23;20187;-85
2021/03/24 04:02:27;;;;;;;0.60;0.60;;;5.00;99.90;;;;;;6086818;23;20167;-86
2021/03/24 04:04:57;;;;;;;0.60;0.60;;;5.00;99.90;;;;;;6086784;23;20167;-85
2021/03/24 04:07:29;;;;;;;0.60;0.60;;;5.00;99.90;;;;;;6086548;23;20564;-86
2021/03/24 04:09:56;;;;;;;0.60;0.60;;;5.00;99.90;;;;;;6086724;23;20171;-86
2021/03/24 04:12:25;;;;;;;0.60;0.60;;;5.00;99.90;;;;;;6086468;23;20471;-85
2021/03/24 04:14:52;;;;;;;0.50;0.50;;;5.00;99.90;;;;;;6086609;23;20756;-86
2021/03/24 04:17:23;;;;;;;0.60;0.60;;;4.90;99.90;;;;;;6086542;23;20179;-85
2021/03/24 04:19:53;;;;;;;0.60;0.60;;;6.70;99.90;;;;;;6086537;23;20197;-86
2021/03/24 04:22:24;;;;;;;0.60;0.60;;;4.90;99.90;;;;;;6086782;23;20523;-85
2021/03/24 04:24:53;;;;;;;0.60;0.60;;;5.80;99.90;;;;;;6086460;23;20167;-85
2021/03/24 04:27:22;;;;;;;0.50;0.50;;;4.90;99.90;;;;;;6086445;23;20180;-85
2021/03/24 04:29:53;;;;;;;0.60;0.60;;;4.80;99.90;;;;;;6086552;23;20175;-86
2021/03/24 04:32:21;;;;;;;0.60;0.60;;;5.90;99.90;;;;;;6086790;23;20194;-86
2021/03/24 04:34:48;;;;;;;0.60;0.60;;;4.90;99.90;;;;;;6087229;23;20183;-85
2021/03/24 04:37:24;;;;;;;0.60;0.60;;;4.80;99.90;;;;;;6087202;23;20183;-86
2021/03/24 04:39:54;;;;;;;0.60;0.60;;;4.80;99.90;;;;;;6086807;23;20516;-86
2021/03/24 04:42:24;;;;;;;0.60;0.60;;;4.60;99.90;;;;;;6086633;23;20171;-86
2021/03/24 04:44:56;;;;;;;0.60;0.60;;;4.50;99.90;;;;;;6086863;23;20171;-86
2021/03/24 04:47:27;;;;;;;0.60;0.60;;;4.90;99.90;;;;;;6086525;23;20355;-86
2021/03/24 04:49:57;;;;;;;0.60;0.60;;;5.10;99.90;;;;;;6086155;23;20609;-86
2021/03/24 04:52:25;;;;;;;0.60;0.60;;;5.40;99.90;;;;;;6085996;23;20211;-86
2021/03/24 04:54:54;;;;;;;0.50;0.50;;;4.70;99.90;;;;;;6086150;23;20290;-86
2021/03/24 04:57:25;;;;;;;0.60;0.60;;;4.70;99.90;;;;;;6086480;23;20206;-85
2021/03/24 05:00:07;;;;;;;0.55;0.55;;;4.70;99.90;;;;;;6086789;23;20191;-84
2021/03/24 05:02:36;;;;;;;0.57;0.57;;;4.80;99.90;;;;;;6087180;23;20178;-84
2021/03/24 05:05:10;;;;;;;0.60;0.60;;;6.00;99.90;;;;;;6088083;23;20183;-84
2021/03/24 05:07:43;;;;;;;0.60;0.60;;;4.80;99.90;;;;;;6087558;23;20402;-87
2021/03/24 05:10:14;;;;;;;0.60;0.60;;;5.60;99.90;;;;;;6087540;23;20175;-87
2021/03/24 05:12:45;;;;;;;0.60;0.60;;;4.90;99.90;;;;;;6087648;23;20290;-87
2021/03/24 05:15:17;;;;;;;0.60;0.60;;;4.90;99.90;;;;;;6087978;23;20213;-86
2021/03/24 05:17:45;;;;;;;0.60;0.60;;;5.00;99.90;;;;;;6087854;23;20171;-87
2021/03/24 05:20:21;;;;;;;0.60;0.60;;;4.90;99.90;;;;;;6088087;23;20199;-85
2021/03/24 05:22:47;;;;;;;0.60;0.60;;;6.50;99.90;;;;;;6088003;23;20171;-84
2021/03/24 05:25:20;;;;;;;0.60;0.60;;;4.90;99.90;;;;;;6088087;23;20190;-83
2021/03/24 05:27:49;;;;;;;0.60;0.60;;;4.90;99.90;;;;;;6084329;23;20171;-83
2021/03/24 05:30:27;;;;;;;0.60;0.60;;;4.90;99.90;;;;;;6088801;23;20179;-81
2021/03/24 05:32:59;;;;;;;0.60;0.60;;;5.00;99.90;;;;;;6087473;23;20167;-82
2021/03/24 05:35:42;;;;;;;0.57;0.57;;;5.00;99.90;;;;;;6084855;23;20262;-82
2021/03/24 05:38:15;;;;;;;0.60;0.60;;;5.00;99.90;;;;;;6087765;23;20609;-83
2021/03/24 05:40:56;;;;;;;0.60;0.60;;;5.00;99.90;;;;;;6087549;23;20500;-82
2021/03/24 05:43:40;;;;;;;0.60;0.60;;;5.10;99.90;;;;;;6087369;23;20444;-82
2021/03/24 05:46:22;;;;;;;0.60;0.60;;;5.10;99.90;;;;;;6090731;23;20168;-83
2021/03/24 05:49:02;;;;;;;0.60;0.60;;;5.10;99.90;;;;;;6100335;23;20202;-84
2021/03/24 05:51:45;;;;;;;0.60;0.60;;;5.10;99.90;;;;;;6110659;23;20273;-85
2021/03/24 05:54:28;;;;;;;0.60;0.60;;;5.10;99.90;;;;;;6095252;23;20202;-87
2021/03/24 05:57:20;;;;;;;0.60;0.60;;;6.80;99.90;;;;;;6097519;23;20210;-87
2021/03/24 05:59:58;;;;;;;0.60;0.60;;;5.10;99.90;;;;;;6088406;23;20184;-88
2021/03/24 06:02:42;;;;;;;0.60;0.60;;;5.80;99.90;;;;;;6095098;23;20174;-85
2021/03/24 06:05:13;;;;;;;0.60;0.60;;;5.30;99.90;;;;;;6107113;23;20440;-84
2021/03/24 06:08:24;;;;;;;0.50;0.50;;;4.90;99.90;;;;;;6114532;22;20148;-84
2021/03/24 06:11:35;;;;;;;0.60;0.60;;;6.60;99.90;;;;;;6017035;22;20420;-83
2021/03/24 06:14:39;;;;;;;0.50;0.50;;;7.30;99.90;;;;;;6092618;23;20191;-83
2021/03/24 06:17:36;;;;;;;0.60;0.60;;;5.20;99.90;;;;;;6072256;23;20191;-84
2021/03/24 06:20:17;;;;;;;0.50;0.50;;;5.40;99.90;;;;;;6085616;23;20200;-84
2021/03/24 06:22:57;;;;;;;0.50;0.50;;;4.60;99.90;;;;;;6078416;23;20184;-84
2021/03/24 06:25:36;;;;;;;0.60;0.60;;;6.50;99.90;;;;;;6075978;23;20172;-83
2021/03/24 06:28:28;;;;;;;0.50;0.50;;;5.10;99.90;;;;;;6076460;23;20190;-84
2021/03/24 06:31:11;;;;;;;0.60;0.60;;;6.90;99.90;;;;;;6104820;22;20205;-83
2021/03/24 06:34:08;;;;;;;0.60;0.60;;;5.50;99.90;;;;;;6107277;23;20166;-83
2021/03/24 06:37:03;;;;;;;0.57;0.57;;;5.60;99.90;;;;;;6107836;23;20191;-84
2021/03/24 06:39:48;;;;;;;0.52;0.52;;;5.90;99.90;;;;;;6107571;23;20186;-84
2021/03/24 06:42:34;;;;;;;0.60;0.60;;;5.40;99.90;;;;;;6101524;23;20163;-85
2021/03/24 06:45:20;;;;;;;0.60;0.60;;;4.90;99.90;;;;;;6104106;23;20225;-84
2021/03/24 06:51:03;;;;;;;0.60;0.60;;;5.50;99.90;;;;;;6224741;22;20190;-83
2021/03/24 07:02:37;;;;;;;0.60;0.60;;;5.60;99.90;;;;;;6071614;22;20210;-84
2021/03/24 07:31:55;;;;;;;0.50;0.50;;;6.00;99.90;;;;;;6090831;22;20214;-86
2021/03/24 07:38:17;;;;;;;0.50;0.50;;;6.00;99.90;;;;;;6031574;23;20181;-86
2021/03/24 07:41:16;;;;;;;0.60;0.60;;;6.10;99.90;;;;;;6116820;23;20209;-86
2021/03/24 07:43:57;;;;;;;0.50;0.50;;;6.30;99.90;;;;;;6106898;23;20178;-86
2021/03/24 07:47:10;;;;;;;0.60;0.60;;;6.20;99.90;;;;;;6116746;23;20199;-86
2021/03/24 07:52:53;;;;;;;0.60;0.60;;;6.50;99.90;;;;;;6085725;23;20229;-86
2021/03/24 07:58:51;;;;;;;0.50;0.50;;;6.30;99.90;;;;;;6084407;22;20250;-87
2021/03/24 08:09:29;;;;;;;0.60;0.60;;;6.60;99.90;;;;;;6107427;22;20222;-81
2021/03/24 08:12:21;;;;;;;0.50;0.50;;;6.70;99.90;;;;;;6101540;22;20215;-82
2021/03/24 08:17:54;;;;;;;0.50;0.50;;;6.60;99.90;;;;;;6087835;22;20215;-83
2021/03/24 08:20:37;;;;;;;0.60;0.60;;;8.60;99.90;;;;;;6103490;23;20191;-82
2021/03/24 08:23:40;;;;;;;0.50;0.50;;;7.10;99.90;;;;;;6103941;23;20197;-83
2021/03/24 08:26:15;;;;;;;0.50;0.50;;;8.20;99.90;;;;;;6090465;23;20159;-83
2021/03/24 08:28:53;;;;;;;0.50;0.50;;;8.50;99.90;;;;;;6093789;23;20167;-83
2021/03/24 08:31:55;;;;;;;0.60;0.60;;;6.20;99.90;;;;;;6106354;23;20166;-85
2021/03/24 08:34:46;;;;;;;0.60;0.60;;;7.10;99.90;;;;;;6111127;22;20211;-83
2021/03/24 08:37:49;;;;;;;0.60;0.60;;;7.10;99.90;;;;;;6095413;23;20168;-83
2021/03/24 08:40:41;;;;;;;0.60;0.60;;;6.30;99.90;;;;;;6116437;23;20182;-83
2021/03/24 08:43:42;;;;;;;0.60;0.60;;;7.20;99.90;;;;;;6095210;23;20179;-80
2021/03/24 08:46:15;;;;;;;0.60;0.60;;;7.30;99.90;;;;;;6082979;23;20182;-79
2021/03/24 08:48:46;;;;;;;0.60;0.60;;;8.00;99.90;;;;;;6087817;23;20163;-80
2021/03/24 08:51:20;;;;;;;0.60;0.60;;;7.50;99.90;;;;;;6088111;23;20199;-81
2021/03/24 08:54:08;;;;;;;0.60;0.60;;;7.60;99.90;;;;;;6086583;23;20180;-80
2021/03/24 08:56:41;;;;;;;0.60;0.60;;;7.70;99.90;;;;;;6083506;23;20171;-79
2021/03/24 08:59:25;;;;;;;0.60;0.60;;;7.80;99.90;;;;;;6086562;23;20663;-80
2021/03/24 09:02:32;;;;;;;0.60;0.60;;;7.80;99.90;;;;;;6086686;23;20184;-77
2021/03/24 09:05:11;;;;;;;0.57;0.57;;;7.90;99.90;;;;;;6088379;23;20167;-79
2021/03/24 09:07:50;;;;;;;0.60;0.60;;;7.90;99.90;;;;;;6090063;23;20456;-82
2021/03/24 09:10:31;;;;;;;0.60;0.60;;;7.90;99.90;;;;;;6095816;23;20213;-83
2021/03/24 09:13:05;;;;;;;0.60;0.60;;;7.90;99.90;;;;;;6090079;23;20292;-83
2021/03/24 09:15:45;;;;;;;0.50;0.50;;;8.10;99.90;;;;;;6094723;23;20294;-83
2021/03/24 09:18:20;;;;;;;0.60;0.60;;;8.40;99.90;;;;;;6102731;23;20183;-81
2021/03/24 09:21:14;;;;;;;0.50;0.50;;;8.30;99.90;;;;;;6090145;23;20186;-80
2021/03/24 09:24:12;;;;;;;0.60;0.60;;;8.50;99.90;;;;;;6087723;23;20167;-81
2021/03/24 09:27:17;;;;;;;0.57;0.57;;;8.60;99.90;;;;;;6087046;23;20206;-82
2021/03/24 09:30:05;;;;;;;0.50;0.50;;;8.70;99.90;;;;;;6100775;23;20183;-82
2021/03/24 09:32:35;;;;;;;0.60;0.60;;;9.00;99.90;;;;;;6088683;23;20221;-81
2021/03/24 09:35:20;;;;;;;0.60;0.60;;;8.80;99.90;;;;;;6088373;23;20207;-82
2021/03/24 09:37:49;;;;;;;0.50;0.50;;;8.70;99.90;;;;;;6088653;23;20581;-81
2021/03/24 09:40:28;;;;;;;0.60;0.60;;;8.70;99.90;;;;;;6089895;23;20209;-85
2021/03/24 09:43:01;;;;;;;0.60;0.60;;;8.80;99.90;;;;;;6090860;23;20678;-85
2021/03/24 09:45:35;;;;;;;0.60;0.60;;;8.60;99.90;;;;;;6099277;23;20226;-85
2021/03/24 09:48:08;;;;;;;0.60;0.60;;;8.80;99.90;;;;;;6091340;23;20217;-84
2021/03/24 09:50:56;;;;;;;0.55;0.55;;;8.90;99.90;;;;;;6088811;23;20195;-87
2021/03/24 09:53:31;;;;;;;0.60;0.60;;;7.90;99.90;;;;;;6092161;23;20228;-87
2021/03/24 09:56:14;;;;;;;0.60;0.60;;;9.10;99.90;;;;;;6093101;23;20250;-85
2021/03/24 09:59:03;;;;;;;0.52;0.52;;;11.00;99.90;;;;;;6094610;23;20660;-82
2021/03/24 10:01:53;;;;;;;0.60;0.60;;;9.30;99.90;;;;;;6103622;23;20188;-86
2021/03/24 10:04:48;;;;;;;0.60;0.60;;;9.20;99.90;;;;;;6094142;23;20179;-82
2021/03/24 10:07:38;;;;;;;0.50;0.50;;;9.30;99.90;;;;;;6097753;23;20167;-84
2021/03/24 10:10:13;;;;;;;0.60;0.60;;;9.40;99.90;;;;;;6101794;23;20593;-87
2021/03/24 10:12:48;;;;;;;0.60;0.60;;;9.40;99.90;;;;;;6094961;23;20206;-85
2021/03/24 10:15:32;;;;;;;0.60;0.60;;;9.40;99.90;;;;;;6093060;23;20218;-83
2021/03/24 10:18:04;;;;;;;0.60;0.60;;;9.50;99.90;;;;;;6091699;23;20171;-81
2021/03/24 10:20:38;;;;;;;0.60;0.60;;;9.60;99.90;;;;;;6087467;23;20215;-82
2021/03/24 10:23:13;;;;;;;0.60;0.60;;;9.60;99.90;;;;;;6086688;23;20168;-82
2021/03/24 10:25:42;;;;;;;0.60;0.60;;;9.80;99.90;;;;;;6086507;23;20171;-84
2021/03/24 10:28:12;;;;;;;0.57;0.57;;;10.00;99.90;;;;;;6086993;23;20612;-84
2021/03/24 10:30:43;;;;;;;0.60;0.60;;;10.00;99.90;;;;;;6088212;23;20383;-84
2021/03/24 10:33:25;;;;;;;0.60;0.60;;;10.00;99.90;;;;;;6087643;23;20593;-84
2021/03/24 10:36:02;;;;;;;0.60;0.60;;;9.90;99.90;;;;;;6097225;23;20507;-86
2021/03/24 10:38:48;;;;;;;0.60;0.60;;;9.90;99.90;;;;;;6088312;23;20175;-83
2021/03/24 10:41:56;;;;;;;0.60;0.60;;;9.90;99.90;;;;;;6086155;23;20202;-83
2021/03/24 10:44:37;;;;;;;0.60;0.60;;;10.00;99.90;;;;;;6088159;23;20392;-86
2021/03/24 10:47:20;;;;;;;0.60;0.60;;;10.20;99.90;;;;;;6087897;23;20667;-89
2021/03/24 10:50:00;;;;;;;0.60;0.60;;;10.40;99.90;;;;;;6096326;22;20527;-83
2021/03/24 10:52:39;;;;;;;0.60;0.60;;;11.10;99.90;;;;;;6096152;23;20273;-84
2021/03/24 10:55:14;;;;;;;0.60;0.60;;;10.60;99.90;;;;;;6099146;23;20217;-86
2021/03/24 10:57:54;;;;;;;0.60;0.60;;;10.60;99.90;;;;;;6097900;23;20155;-86
2021/03/24 11:00:26;;;;;;;0.60;0.60;;;10.40;99.90;;;;;;6091933;23;20186;-87
2021/03/24 11:03:04;;;;;;;0.60;0.60;;;10.70;99.90;;;;;;6095045;23;20171;-87
2021/03/24 11:05:39;;;;;;;0.60;0.60;;;11.60;99.90;;;;;;6094648;23;20186;-88
2021/03/24 11:08:19;;;;;;;0.60;0.60;;;12.00;99.90;;;;;;6093500;23;20197;-88
2021/03/24 11:10:52;;;;;;;0.60;0.60;;;10.60;99.90;;;;;;6095319;23;20159;-87
2021/03/24 11:13:28;;;;;;;0.60;0.60;;;10.30;99.90;;;;;;6095367;23;20183;-86
2021/03/24 11:16:24;;;;;;;0.60;0.60;;;11.40;99.90;;;;;;6097704;23;20206;-86
2021/03/24 11:18:54;;;;;;;0.60;0.60;;;10.60;99.90;;;;;;6107900;23;20195;-84
2021/03/24 11:21:41;;;;;;;0.60;0.60;;;10.20;99.90;;;;;;6094837;23;20194;-86
2021/03/24 11:24:20;;;;;;;0.60;0.60;;;11.00;99.90;;;;;;6103689;23;20479;-85
2021/03/24 11:27:08;;;;;;;0.60;0.60;;;11.10;99.90;;;;;;6094415;23;20170;-85
2021/03/24 11:29:42;;;;;;;0.60;0.60;;;11.20;99.90;;;;;;6090484;23;20179;-86
2021/03/24 11:32:21;;;;;;;0.50;0.50;;;12.50;99.90;;;;;;6088051;23;20171;-87
2021/03/24 11:34:54;;;;;;;0.60;0.60;;;11.20;99.90;;;;;;6098885;23;20179;-85
2021/03/24 11:37:43;;;;;;;0.60;0.60;;;11.90;99.90;;;;;;6099148;23;20163;-83
2021/03/24 11:40:26;;;;;;;0.60;0.60;;;12.40;99.90;;;;;;6100110;23;20182;-84
2021/03/24 11:42:56;;;;;;;0.50;0.50;;;12.40;99.90;;;;;;6095520;23;20202;-84
2021/03/24 11:45:25;;;;;;;0.60;0.60;;;13.20;99.90;;;;;;6094990;23;20415;-84
2021/03/24 11:48:14;;;;;;;0.60;0.60;;;13.70;99.90;;;;;;6089997;23;20183;-84
2021/03/24 11:50:51;;;;;;;0.60;0.60;;;13.50;99.90;;;;;;6081705;23;20286;-84
2021/03/24 11:53:28;;;;;;;0.60;0.60;;;13.50;99.90;;;;;;6089160;23;20173;-84
2021/03/24 11:55:59;;;;;;;0.60;0.60;;;13.80;99.90;;;;;;6088186;23;20269;-84
2021/03/24 11:58:46;;;;;;;0.60;0.60;;;13.80;99.90;;;;;;6087358;23;20214;-83
2021/03/24 12:01:28;;;;;;;0.57;0.57;;;14.30;99.90;;;;;;6088338;23;20251;-83
2021/03/24 12:04:03;;;;;;;0.60;0.60;;;14.10;99.90;;;;;;6088697;23;20171;-84
2021/03/24 12:06:40;;;;;;;0.60;0.60;;;14.10;99.90;;;;;;6090791;23;20171;-83
2021/03/24 12:09:11;;;;;;;0.60;0.60;;;14.40;99.90;;;;;;6087627;23;20182;-84
2021/03/24 12:11:40;;;;;;;0.60;0.60;;;13.70;99.90;;;;;;6090624;23;20179;-83
2021/03/24 12:14:13;;;;;;;0.60;0.60;;;13.70;99.90;;;;;;6090911;23;20183;-84
2021/03/24 12:16:42;;;;;;;0.50;0.50;;;14.00;99.90;;;;;;6088097;23;20170;-84
2021/03/24 12:19:25;;;;;;;0.60;0.60;;;14.10;99.90;;;;;;6082421;23;20449;-83
2021/03/24 12:21:54;;;;;;;0.60;0.60;;;13.80;99.90;;;;;;6087989;23;20765;-84
2021/03/24 12:24:24;;;;;;;0.60;0.60;;;13.90;99.90;;;;;;6098013;23;20183;-84
2021/03/24 12:26:52;;;;;;;0.60;0.60;;;14.10;99.90;;;;;;6089947;23;20164;-84
2021/03/24 12:29:23;;;;;;;0.60;0.60;;;14.30;99.90;;;;;;6090736;23;20183;-84
2021/03/24 12:31:54;;;;;;;0.60;0.60;;;14.50;99.90;;;;;;6089356;23;20172;-84
2021/03/24 12:34:22;;;;;;;0.60;0.60;;;14.30;99.90;;;;;;6090823;23;20246;-84
2021/03/24 12:36:51;;;;;;;0.60;0.60;;;13.70;99.90;;;;;;6090837;23;20183;-83
2021/03/24 12:39:30;;;;;;;0.57;0.57;;;13.40;99.90;;;;;;6098691;23;20197;-85
2021/03/24 12:42:26;;;;;;;0.60;0.60;;;13.50;99.90;;;;;;6096378;22;20214;-87
2021/03/24 12:46:02;;;;;;;0.60;0.60;;;13.90;99.90;;;;;;6122340;22;20186;-87
2021/03/24 13:05:13;;;;;;;0.60;0.60;;;14.30;99.90;;;;;;6085836;23;20206;-82
2021/03/24 13:07:46;;;;;;;0.60;0.60;;;14.50;99.90;;;;;;6087073;23;20217;-83
2021/03/24 13:10:28;;;;;;;0.60;0.60;;;14.80;99.90;;;;;;6087582;23;20174;-82
2021/03/24 13:13:05;;;;;;;0.60;0.60;;;14.80;99.90;;;;;;6086520;23;20168;-82
2021/03/24 13:15:36;;;;;;;0.60;0.60;;;14.80;99.90;;;;;;6087992;23;20178;-83
2021/03/24 13:18:12;;;;;;;0.60;0.60;;;14.90;99.90;;;;;;6087639;23;20545;-83
2021/03/24 13:20:58;;;;;;;0.60;0.60;;;15.00;99.90;;;;;;6087620;23;20238;-85
2021/03/24 13:23:36;;;;;;;0.60;0.60;;;14.80;99.90;;;;;;6088508;23;20198;-82
2021/03/24 13:26:12;;;;;;;0.60;0.60;;;14.80;99.90;;;;;;6088437;23;20171;-84
2021/03/24 13:28:53;;;;;;;0.60;0.60;;;14.90;99.90;;;;;;6088063;23;20228;-82
2021/03/24 13:31:24;;;;;;;0.60;0.60;;;14.60;99.90;;;;;;6088212;23;20170;-83
2021/03/24 13:34:18;;;;;;;0.60;0.60;;;14.90;99.90;;;;;;6088274;23;20163;-82
2021/03/24 13:36:50;;;;;;;0.60;0.60;;;15.10;99.90;;;;;;6087936;23;20183;-81
2021/03/24 13:42:54;;;;;;;0.60;0.60;;;14.80;99.90;;;;;;6072715;23;20194;-81
2021/03/24 13:45:28;;;;;;;0.60;0.60;;;15.20;99.90;;;;;;6088165;23;20163;-81
2021/03/24 13:48:00;;;;;;;0.60;0.60;;;14.80;99.90;;;;;;6088102;23;20163;-82
2021/03/24 13:50:30;;;;;;;0.60;0.60;;;14.80;99.90;;;;;;6088155;23;20233;-82
2021/03/24 13:52:58;;;;;;;0.60;0.60;;;14.80;99.90;;;;;;6087962;23;20187;-81
2021/03/24 13:59:09;;;;;;;0.60;0.60;;;14.80;99.90;;;;;;5977901;23;20228;-81
2021/03/24 14:01:42;;;;;;;0.60;0.60;;;15.10;99.90;;;;;;6069756;23;20199;-82
2021/03/24 14:04:32;;;;;;;0.60;0.60;;;15.20;99.90;;;;;;6088434;23;20209;-81
2021/03/24 14:07:11;;;;;;;0.60;0.60;;;15.20;99.90;;;;;;6088084;23;20194;-81
2021/03/24 14:09:40;;;;;;;0.60;0.60;;;15.20;99.90;;;;;;6087912;23;20608;-81
2021/03/24 14:12:30;;;;;;;0.60;0.60;;;15.30;99.90;;;;;;6087938;23;20186;-80
2021/03/24 14:15:18;;;;;;;0.60;0.60;;;15.30;99.90;;;;;;6088189;23;20187;-80
2021/03/24 14:18:05;;;;;;;0.60;0.60;;;15.30;99.90;;;;;;6088771;23;20167;-80
2021/03/24 14:20:36;;;;;;;0.60;0.60;;;15.50;99.90;;;;;;6088825;23;20187;-80
2021/03/24 14:23:17;;;;;;;0.60;0.60;;;15.40;99.90;;;;;;6088142;23;20175;-80
2021/03/24 14:25:44;;;;;;;0.50;0.50;;;14.60;99.90;;;;;;6088091;23;20171;-80
2021/03/24 14:28:20;;;;;;;0.60;0.60;;;15.10;99.90;;;;;;6087089;23;20178;-80
2021/03/24 14:30:52;;;;;;;0.60;0.60;;;15.40;99.90;;;;;;6088498;23;20175;-80
2021/03/24 14:33:28;;;;;;;0.60;0.60;;;15.10;99.90;;;;;;6088545;23;20172;-83
2021/03/24 14:36:00;;;;;;;0.60;0.60;;;15.30;99.90;;;;;;6088097;23;20159;-84
2021/03/24 14:38:47;;;;;;;0.60;0.60;;;15.30;99.90;;;;;;6088155;23;20163;-82
2021/03/24 14:41:21;;;;;;;0.60;0.60;;;15.40;99.90;;;;;;6082686;23;20199;-82
2021/03/24 14:44:08;;;;;;;0.60;0.60;;;15.30;99.90;;;;;;6088262;23;20544;-81
2021/03/24 14:46:55;;;;;;;0.60;0.60;;;15.00;99.90;;;;;;6088586;23;20167;-82
2021/03/24 14:49:40;;;;;;;0.60;0.60;;;15.30;99.90;;;;;;6085130;23;20219;-81
2021/03/24 14:52:10;;;;;;;0.60;0.60;;;15.00;99.90;;;;;;6088519;23;20199;-81
2021/03/24 14:54:37;;;;;;;0.60;0.60;;;15.30;99.90;;;;;;6088731;23;20183;-82
2021/03/24 14:57:08;;;;;;;0.60;0.60;;;15.20;99.90;;;;;;6086065;23;20267;-82
2021/03/24 14:59:36;;;;;;;0.60;0.60;;;15.20;99.90;;;;;;6087964;23;20526;-81
2021/03/24 15:02:35;;;;;;;0.60;0.60;;;15.30;99.90;;;;;;6087811;23;20195;-82